sensor_id;sensor_type;location;lat;lon;timestamp;P1;durP1;ratioP1;P2;durP2;ratioP2
77495;SDS011;66600;48.378;9.948;2023-04-30T00:00:20;7.82;;;5.30;;
77495;SDS011;66600;48.378;9.948;2023-04-30T00:02:46;8.35;;;5.40;;
77495;SDS011;66600;48.378;9.948;2023-04-30T00:05:11;9.18;;;5.72;;
77495;SDS011;66600;48.378;9.948;2023-04-30T00:07:36;7.78;;;4.97;;
77495;SDS011;66600;48.378;9.948;2023-04-30T00:10:06;9.88;;;5.30;;
77495;SDS011;66600;48.378;9.948;2023-04-30T00:12:35;8.20;;;5.15;;
77495;SDS011;66600;48.378;9.948;2023-04-30T00:15:00;8.98;;;5.38;;
77495;SDS011;66600;48.378;9.948;2023-04-30T00:17:25;7.78;;;5.25;;
77495;SDS011;66600;48.378;9.948;2023-04-30T00:19:51;8.60;;;5.35;;
77495;SDS011;66600;48.378;9.948;2023-04-30T00:22:19;6.80;;;5.18;;
77495;SDS011;66600;48.378;9.948;2023-04-30T00:24:44;6.65;;;4.93;;
77495;SDS011;66600;48.378;9.948;2023-04-30T00:27:10;8.98;;;5.97;;
77495;SDS011;66600;48.378;9.948;2023-04-30T00:29:35;7.15;;;5.03;;
77495;SDS011;66600;48.378;9.948;2023-04-30T00:32:01;6.53;;;4.78;;
77495;SDS011;66600;48.378;9.948;2023-04-30T00:34:27;8.27;;;5.18;;
77495;SDS011;66600;48.378;9.948;2023-04-30T00:36:52;8.20;;;5.00;;
77495;SDS011;66600;48.378;9.948;2023-04-30T00:39:18;8.68;;;5.60;;
77495;SDS011;66600;48.378;9.948;2023-04-30T00:41:43;8.15;;;5.30;;
77495;SDS011;66600;48.378;9.948;2023-04-30T00:44:08;8.85;;;5.53;;
77495;SDS011;66600;48.378;9.948;2023-04-30T00:46:33;9.63;;;5.65;;
77495;SDS011;66600;48.378;9.948;2023-04-30T00:48:59;7.90;;;5.38;;
77495;SDS011;66600;48.378;9.948;2023-04-30T00:51:28;8.00;;;5.60;;
77495;SDS011;66600;48.378;9.948;2023-04-30T00:53:55;8.35;;;5.68;;
77495;SDS011;66600;48.378;9.948;2023-04-30T00:56:21;8.93;;;6.03;;
77495;SDS011;66600;48.378;9.948;2023-04-30T00:58:46;8.43;;;5.63;;
77495;SDS011;66600;48.378;9.948;2023-04-30T01:01:13;7.72;;;5.40;;
77495;SDS011;66600;48.378;9.948;2023-04-30T01:03:39;9.02;;;6.05;;
77495;SDS011;66600;48.378;9.948;2023-04-30T01:06:06;9.35;;;6.13;;
77495;SDS011;66600;48.378;9.948;2023-04-30T01:08:31;7.70;;;5.13;;
77495;SDS011;66600;48.378;9.948;2023-04-30T01:11:44;7.63;;;5.45;;
77495;SDS011;66600;48.378;9.948;2023-04-30T01:14:01;8.82;;;6.10;;
77495;SDS011;66600;48.378;9.948;2023-04-30T01:16:34;9.48;;;6.10;;
77495;SDS011;66600;48.378;9.948;2023-04-30T01:19:45;11.60;;;6.22;;
77495;SDS011;66600;48.378;9.948;2023-04-30T01:21:55;12.30;;;7.15;;
77495;SDS011;66600;48.378;9.948;2023-04-30T01:24:36;9.77;;;6.88;;
77495;SDS011;66600;48.378;9.948;2023-04-30T01:27:22;9.07;;;6.35;;
77495;SDS011;66600;48.378;9.948;2023-04-30T01:29:56;10.50;;;6.90;;
77495;SDS011;66600;48.378;9.948;2023-04-30T01:32:22;11.35;;;7.10;;
77495;SDS011;66600;48.378;9.948;2023-04-30T01:34:47;9.88;;;6.75;;
77495;SDS011;66600;48.378;9.948;2023-04-30T01:37:34;10.50;;;6.43;;
77495;SDS011;66600;48.378;9.948;2023-04-30T01:45:32;10.10;;;6.60;;
77495;SDS011;66600;48.378;9.948;2023-04-30T01:48:26;10.45;;;6.82;;
77495;SDS011;66600;48.378;9.948;2023-04-30T01:53:39;10.88;;;6.45;;
77495;SDS011;66600;48.378;9.948;2023-04-30T01:56:08;11.20;;;6.45;;
77495;SDS011;66600;48.378;9.948;2023-04-30T01:58:36;9.88;;;6.32;;
77495;SDS011;66600;48.378;9.948;2023-04-30T02:01:03;10.82;;;6.28;;
77495;SDS011;66600;48.378;9.948;2023-04-30T02:03:29;10.48;;;6.35;;
77495;SDS011;66600;48.378;9.948;2023-04-30T02:05:54;10.65;;;6.28;;
77495;SDS011;66600;48.378;9.948;2023-04-30T02:08:19;10.80;;;6.60;;
77495;SDS011;66600;48.378;9.948;2023-04-30T02:10:45;11.88;;;6.60;;
77495;SDS011;66600;48.378;9.948;2023-04-30T02:13:10;9.38;;;5.93;;
77495;SDS011;66600;48.378;9.948;2023-04-30T02:15:36;12.88;;;6.93;;
77495;SDS011;66600;48.378;9.948;2023-04-30T02:18:01;12.35;;;7.20;;
77495;SDS011;66600;48.378;9.948;2023-04-30T02:20:26;12.13;;;6.88;;
77495;SDS011;66600;48.378;9.948;2023-04-30T02:22:51;13.63;;;7.75;;
77495;SDS011;66600;48.378;9.948;2023-04-30T02:25:17;12.23;;;7.43;;
77495;SDS011;66600;48.378;9.948;2023-04-30T02:27:42;12.00;;;7.40;;
77495;SDS011;66600;48.378;9.948;2023-04-30T02:30:07;13.38;;;7.55;;
77495;SDS011;66600;48.378;9.948;2023-04-30T02:32:33;11.57;;;7.03;;
77495;SDS011;66600;48.378;9.948;2023-04-30T02:34:58;12.77;;;7.32;;
77495;SDS011;66600;48.378;9.948;2023-04-30T02:37:24;12.80;;;6.93;;
77495;SDS011;66600;48.378;9.948;2023-04-30T02:39:49;13.60;;;7.97;;
77495;SDS011;66600;48.378;9.948;2023-04-30T02:42:15;13.18;;;7.68;;
77495;SDS011;66600;48.378;9.948;2023-04-30T02:44:40;12.13;;;7.00;;
77495;SDS011;66600;48.378;9.948;2023-04-30T02:47:06;13.60;;;7.45;;
77495;SDS011;66600;48.378;9.948;2023-04-30T02:49:31;12.63;;;7.30;;
77495;SDS011;66600;48.378;9.948;2023-04-30T02:51:57;12.77;;;7.93;;
77495;SDS011;66600;48.378;9.948;2023-04-30T02:54:22;13.27;;;7.80;;
77495;SDS011;66600;48.378;9.948;2023-04-30T02:56:48;13.13;;;7.40;;
77495;SDS011;66600;48.378;9.948;2023-04-30T02:59:13;13.20;;;7.80;;
77495;SDS011;66600;48.378;9.948;2023-04-30T03:01:39;13.90;;;7.93;;
77495;SDS011;66600;48.378;9.948;2023-04-30T03:04:04;13.65;;;7.78;;
77495;SDS011;66600;48.378;9.948;2023-04-30T03:06:30;14.60;;;8.25;;
77495;SDS011;66600;48.378;9.948;2023-04-30T03:08:56;13.48;;;8.30;;
77495;SDS011;66600;48.378;9.948;2023-04-30T03:11:21;14.77;;;8.57;;
77495;SDS011;66600;48.378;9.948;2023-04-30T03:13:46;16.83;;;8.55;;
77495;SDS011;66600;48.378;9.948;2023-04-30T03:16:15;16.35;;;8.98;;
77495;SDS011;66600;48.378;9.948;2023-04-30T03:18:41;19.17;;;9.98;;
77495;SDS011;66600;48.378;9.948;2023-04-30T03:21:06;18.00;;;9.07;;
77495;SDS011;66600;48.378;9.948;2023-04-30T03:23:31;17.02;;;8.50;;
77495;SDS011;66600;48.378;9.948;2023-04-30T03:25:57;17.92;;;9.63;;
77495;SDS011;66600;48.378;9.948;2023-04-30T03:28:22;18.80;;;9.60;;
77495;SDS011;66600;48.378;9.948;2023-04-30T03:30:47;16.73;;;8.77;;
77495;SDS011;66600;48.378;9.948;2023-04-30T03:33:13;17.33;;;8.95;;
77495;SDS011;66600;48.378;9.948;2023-04-30T03:35:38;14.68;;;8.15;;
77495;SDS011;66600;48.378;9.948;2023-04-30T03:38:03;15.95;;;8.85;;
77495;SDS011;66600;48.378;9.948;2023-04-30T03:40:28;14.00;;;8.65;;
77495;SDS011;66600;48.378;9.948;2023-04-30T03:42:54;16.25;;;9.35;;
77495;SDS011;66600;48.378;9.948;2023-04-30T03:45:19;16.95;;;9.80;;
77495;SDS011;66600;48.378;9.948;2023-04-30T03:47:45;16.00;;;9.52;;
77495;SDS011;66600;48.378;9.948;2023-04-30T03:50:10;17.75;;;9.95;;
77495;SDS011;66600;48.378;9.948;2023-04-30T03:52:36;19.65;;;9.60;;
77495;SDS011;66600;48.378;9.948;2023-04-30T03:55:02;18.73;;;9.55;;
77495;SDS011;66600;48.378;9.948;2023-04-30T03:57:28;19.45;;;10.70;;
77495;SDS011;66600;48.378;9.948;2023-04-30T03:59:53;20.48;;;10.07;;
77495;SDS011;66600;48.378;9.948;2023-04-30T04:02:19;19.23;;;10.27;;
77495;SDS011;66600;48.378;9.948;2023-04-30T04:04:45;20.35;;;10.40;;
77495;SDS011;66600;48.378;9.948;2023-04-30T04:07:11;16.25;;;9.43;;
77495;SDS011;66600;48.378;9.948;2023-04-30T04:09:37;15.98;;;9.25;;
77495;SDS011;66600;48.378;9.948;2023-04-30T04:12:02;18.90;;;9.40;;
77495;SDS011;66600;48.378;9.948;2023-04-30T04:14:27;17.17;;;9.50;;
77495;SDS011;66600;48.378;9.948;2023-04-30T04:16:52;18.63;;;10.23;;
77495;SDS011;66600;48.378;9.948;2023-04-30T04:19:18;17.42;;;10.13;;
77495;SDS011;66600;48.378;9.948;2023-04-30T04:21:43;17.70;;;10.02;;
77495;SDS011;66600;48.378;9.948;2023-04-30T04:24:09;19.48;;;9.25;;
77495;SDS011;66600;48.378;9.948;2023-04-30T04:26:34;16.77;;;9.20;;
77495;SDS011;66600;48.378;9.948;2023-04-30T04:29:00;18.35;;;9.95;;
77495;SDS011;66600;48.378;9.948;2023-04-30T04:31:27;22.15;;;11.07;;
77495;SDS011;66600;48.378;9.948;2023-04-30T04:33:53;18.50;;;10.50;;
77495;SDS011;66600;48.378;9.948;2023-04-30T04:36:23;18.45;;;10.35;;
77495;SDS011;66600;48.378;9.948;2023-04-30T04:38:49;19.17;;;10.43;;
77495;SDS011;66600;48.378;9.948;2023-04-30T04:41:14;19.27;;;9.90;;
77495;SDS011;66600;48.378;9.948;2023-04-30T04:43:40;16.83;;;9.95;;
77495;SDS011;66600;48.378;9.948;2023-04-30T04:46:06;18.77;;;9.90;;
77495;SDS011;66600;48.378;9.948;2023-04-30T04:48:33;19.95;;;10.93;;
77495;SDS011;66600;48.378;9.948;2023-04-30T04:50:58;18.42;;;10.23;;
77495;SDS011;66600;48.378;9.948;2023-04-30T04:53:23;16.52;;;9.73;;
77495;SDS011;66600;48.378;9.948;2023-04-30T04:55:49;17.52;;;10.43;;
77495;SDS011;66600;48.378;9.948;2023-04-30T04:58:14;16.67;;;9.27;;
77495;SDS011;66600;48.378;9.948;2023-04-30T05:00:39;17.98;;;10.25;;
77495;SDS011;66600;48.378;9.948;2023-04-30T05:03:04;17.25;;;9.75;;
77495;SDS011;66600;48.378;9.948;2023-04-30T05:05:30;17.13;;;10.07;;
77495;SDS011;66600;48.378;9.948;2023-04-30T05:07:55;19.85;;;10.73;;
77495;SDS011;66600;48.378;9.948;2023-04-30T05:10:20;16.65;;;10.00;;
77495;SDS011;66600;48.378;9.948;2023-04-30T05:12:46;18.08;;;10.68;;
77495;SDS011;66600;48.378;9.948;2023-04-30T05:15:11;19.30;;;10.25;;
77495;SDS011;66600;48.378;9.948;2023-04-30T05:17:36;17.95;;;9.85;;
77495;SDS011;66600;48.378;9.948;2023-04-30T05:20:02;17.92;;;10.35;;
77495;SDS011;66600;48.378;9.948;2023-04-30T05:22:27;15.80;;;9.20;;
77495;SDS011;66600;48.378;9.948;2023-04-30T05:24:52;17.20;;;10.30;;
77495;SDS011;66600;48.378;9.948;2023-04-30T05:27:18;17.05;;;9.63;;
77495;SDS011;66600;48.378;9.948;2023-04-30T05:29:43;19.02;;;10.25;;
77495;SDS011;66600;48.378;9.948;2023-04-30T05:32:08;15.45;;;9.00;;
77495;SDS011;66600;48.378;9.948;2023-04-30T05:34:34;17.25;;;9.00;;
77495;SDS011;66600;48.378;9.948;2023-04-30T05:36:59;17.08;;;9.35;;
77495;SDS011;66600;48.378;9.948;2023-04-30T05:39:25;17.08;;;9.98;;
77495;SDS011;66600;48.378;9.948;2023-04-30T05:41:51;15.63;;;9.45;;
77495;SDS011;66600;48.378;9.948;2023-04-30T05:44:16;15.98;;;9.50;;
77495;SDS011;66600;48.378;9.948;2023-04-30T05:46:41;20.45;;;10.82;;
77495;SDS011;66600;48.378;9.948;2023-04-30T05:49:06;15.93;;;9.38;;
77495;SDS011;66600;48.378;9.948;2023-04-30T05:51:32;18.30;;;9.02;;
77495;SDS011;66600;48.378;9.948;2023-04-30T05:53:57;15.60;;;9.52;;
77495;SDS011;66600;48.378;9.948;2023-04-30T05:56:22;16.70;;;9.60;;
77495;SDS011;66600;48.378;9.948;2023-04-30T05:58:49;12.93;;;8.18;;
77495;SDS011;66600;48.378;9.948;2023-04-30T06:01:16;14.63;;;10.15;;
77495;SDS011;66600;48.378;9.948;2023-04-30T06:03:43;14.65;;;9.15;;
77495;SDS011;66600;48.378;9.948;2023-04-30T06:06:08;15.43;;;9.55;;
77495;SDS011;66600;48.378;9.948;2023-04-30T06:08:34;17.20;;;9.65;;
77495;SDS011;66600;48.378;9.948;2023-04-30T06:10:59;17.38;;;10.38;;
77495;SDS011;66600;48.378;9.948;2023-04-30T06:13:24;13.88;;;9.13;;
77495;SDS011;66600;48.378;9.948;2023-04-30T06:15:50;16.83;;;9.18;;
77495;SDS011;66600;48.378;9.948;2023-04-30T06:18:15;17.23;;;10.18;;
77495;SDS011;66600;48.378;9.948;2023-04-30T06:20:41;16.02;;;9.95;;
77495;SDS011;66600;48.378;9.948;2023-04-30T06:23:06;16.80;;;9.48;;
77495;SDS011;66600;48.378;9.948;2023-04-30T06:25:31;16.92;;;9.88;;
77495;SDS011;66600;48.378;9.948;2023-04-30T06:27:57;16.88;;;10.60;;
77495;SDS011;66600;48.378;9.948;2023-04-30T06:30:22;17.67;;;10.15;;
77495;SDS011;66600;48.378;9.948;2023-04-30T06:32:47;16.45;;;9.70;;
77495;SDS011;66600;48.378;9.948;2023-04-30T06:35:13;17.50;;;9.93;;
77495;SDS011;66600;48.378;9.948;2023-04-30T06:37:38;16.75;;;9.25;;
77495;SDS011;66600;48.378;9.948;2023-04-30T06:40:04;16.42;;;9.30;;
77495;SDS011;66600;48.378;9.948;2023-04-30T06:42:30;18.10;;;10.88;;
77495;SDS011;66600;48.378;9.948;2023-04-30T06:44:58;14.95;;;9.18;;
77495;SDS011;66600;48.378;9.948;2023-04-30T06:47:25;14.80;;;9.35;;
77495;SDS011;66600;48.378;9.948;2023-04-30T06:49:50;14.68;;;9.32;;
77495;SDS011;66600;48.378;9.948;2023-04-30T06:52:16;16.13;;;9.45;;
77495;SDS011;66600;48.378;9.948;2023-04-30T06:54:41;13.88;;;9.38;;
77495;SDS011;66600;48.378;9.948;2023-04-30T06:57:07;14.15;;;8.98;;
77495;SDS011;66600;48.378;9.948;2023-04-30T06:59:33;15.05;;;9.73;;
77495;SDS011;66600;48.378;9.948;2023-04-30T07:01:58;12.60;;;8.88;;
77495;SDS011;66600;48.378;9.948;2023-04-30T07:04:23;14.40;;;9.75;;
77495;SDS011;66600;48.378;9.948;2023-04-30T07:06:50;15.13;;;9.70;;
77495;SDS011;66600;48.378;9.948;2023-04-30T07:09:15;12.95;;;8.93;;
77495;SDS011;66600;48.378;9.948;2023-04-30T07:11:41;13.60;;;8.90;;
77495;SDS011;66600;48.378;9.948;2023-04-30T07:14:06;13.40;;;9.75;;
77495;SDS011;66600;48.378;9.948;2023-04-30T07:16:32;12.60;;;8.90;;
77495;SDS011;66600;48.378;9.948;2023-04-30T07:18:57;14.20;;;9.18;;
77495;SDS011;66600;48.378;9.948;2023-04-30T07:21:23;14.30;;;9.05;;
77495;SDS011;66600;48.378;9.948;2023-04-30T07:23:49;12.90;;;8.60;;
77495;SDS011;66600;48.378;9.948;2023-04-30T07:26:15;12.07;;;8.40;;
77495;SDS011;66600;48.378;9.948;2023-04-30T07:28:41;12.05;;;9.05;;
77495;SDS011;66600;48.378;9.948;2023-04-30T07:31:06;14.63;;;9.15;;
77495;SDS011;66600;48.378;9.948;2023-04-30T07:33:31;12.85;;;8.52;;
77495;SDS011;66600;48.378;9.948;2023-04-30T07:35:57;13.32;;;8.35;;
77495;SDS011;66600;48.378;9.948;2023-04-30T07:38:23;12.18;;;8.98;;
77495;SDS011;66600;48.378;9.948;2023-04-30T07:40:49;12.05;;;8.43;;
77495;SDS011;66600;48.378;9.948;2023-04-30T07:43:14;12.65;;;8.57;;
77495;SDS011;66600;48.378;9.948;2023-04-30T07:45:39;11.30;;;8.32;;
77495;SDS011;66600;48.378;9.948;2023-04-30T07:48:06;12.02;;;7.82;;
77495;SDS011;66600;48.378;9.948;2023-04-30T07:50:31;13.75;;;8.27;;
77495;SDS011;66600;48.378;9.948;2023-04-30T07:53:01;12.85;;;8.57;;
77495;SDS011;66600;48.378;9.948;2023-04-30T07:55:26;11.88;;;7.80;;
77495;SDS011;66600;48.378;9.948;2023-04-30T07:57:51;10.50;;;7.68;;
77495;SDS011;66600;48.378;9.948;2023-04-30T08:00:17;9.60;;;7.53;;
77495;SDS011;66600;48.378;9.948;2023-04-30T08:02:43;11.40;;;7.63;;
77495;SDS011;66600;48.378;9.948;2023-04-30T08:05:09;12.35;;;8.25;;
77495;SDS011;66600;48.378;9.948;2023-04-30T08:07:35;9.57;;;7.00;;
77495;SDS011;66600;48.378;9.948;2023-04-30T08:10:01;11.23;;;7.85;;
77495;SDS011;66600;48.378;9.948;2023-04-30T08:12:26;10.13;;;7.35;;
77495;SDS011;66600;48.378;9.948;2023-04-30T08:14:58;11.40;;;7.15;;
77495;SDS011;66600;48.378;9.948;2023-04-30T08:17:25;10.90;;;7.80;;
77495;SDS011;66600;48.378;9.948;2023-04-30T08:19:50;9.35;;;7.03;;
77495;SDS011;66600;48.378;9.948;2023-04-30T08:22:16;9.65;;;7.25;;
77495;SDS011;66600;48.378;9.948;2023-04-30T08:24:41;9.65;;;6.97;;
77495;SDS011;66600;48.378;9.948;2023-04-30T08:27:06;9.88;;;6.90;;
77495;SDS011;66600;48.378;9.948;2023-04-30T08:29:32;9.30;;;6.57;;
77495;SDS011;66600;48.378;9.948;2023-04-30T08:31:57;9.48;;;6.72;;
77495;SDS011;66600;48.378;9.948;2023-04-30T08:34:27;10.88;;;7.82;;
77495;SDS011;66600;48.378;9.948;2023-04-30T08:36:52;11.13;;;7.65;;
77495;SDS011;66600;48.378;9.948;2023-04-30T08:39:17;10.63;;;7.43;;
77495;SDS011;66600;48.378;9.948;2023-04-30T08:41:43;9.73;;;7.57;;
77495;SDS011;66600;48.378;9.948;2023-04-30T08:44:15;9.95;;;7.28;;
77495;SDS011;66600;48.378;9.948;2023-04-30T08:46:42;8.70;;;7.05;;
77495;SDS011;66600;48.378;9.948;2023-04-30T08:49:08;10.35;;;6.90;;
77495;SDS011;66600;48.378;9.948;2023-04-30T08:51:34;12.15;;;7.13;;
77495;SDS011;66600;48.378;9.948;2023-04-30T08:54:00;8.63;;;6.72;;
77495;SDS011;66600;48.378;9.948;2023-04-30T08:56:26;12.07;;;6.57;;
77495;SDS011;66600;48.378;9.948;2023-04-30T08:58:53;8.18;;;5.95;;
77495;SDS011;66600;48.378;9.948;2023-04-30T09:01:18;8.55;;;5.60;;
77495;SDS011;66600;48.378;9.948;2023-04-30T09:03:44;8.77;;;6.25;;
77495;SDS011;66600;48.378;9.948;2023-04-30T09:06:13;8.82;;;5.80;;
77495;SDS011;66600;48.378;9.948;2023-04-30T09:08:49;8.05;;;5.90;;
77495;SDS011;66600;48.378;9.948;2023-04-30T09:11:22;8.35;;;5.80;;
77495;SDS011;66600;48.378;9.948;2023-04-30T09:13:54;7.82;;;5.93;;
77495;SDS011;66600;48.378;9.948;2023-04-30T09:16:22;6.78;;;5.70;;
77495;SDS011;66600;48.378;9.948;2023-04-30T09:18:48;7.63;;;5.63;;
77495;SDS011;66600;48.378;9.948;2023-04-30T09:21:14;8.38;;;6.43;;
77495;SDS011;66600;48.378;9.948;2023-04-30T09:23:59;8.18;;;5.80;;
77495;SDS011;66600;48.378;9.948;2023-04-30T09:26:30;8.55;;;5.70;;
77495;SDS011;66600;48.378;9.948;2023-04-30T09:28:57;9.45;;;6.10;;
77495;SDS011;66600;48.378;9.948;2023-04-30T09:31:23;7.78;;;5.78;;
77495;SDS011;66600;48.378;9.948;2023-04-30T09:33:50;8.10;;;6.05;;
77495;SDS011;66600;48.378;9.948;2023-04-30T09:36:16;9.43;;;5.97;;
77495;SDS011;66600;48.378;9.948;2023-04-30T09:38:42;8.68;;;5.80;;
77495;SDS011;66600;48.378;9.948;2023-04-30T09:41:11;8.68;;;5.80;;
77495;SDS011;66600;48.378;9.948;2023-04-30T09:43:46;8.52;;;5.97;;
77495;SDS011;66600;48.378;9.948;2023-04-30T09:46:11;8.45;;;5.13;;
77495;SDS011;66600;48.378;9.948;2023-04-30T09:48:36;9.57;;;5.72;;
77495;SDS011;66600;48.378;9.948;2023-04-30T09:51:05;8.00;;;5.05;;
77495;SDS011;66600;48.378;9.948;2023-04-30T09:53:30;7.70;;;5.53;;
77495;SDS011;66600;48.378;9.948;2023-04-30T09:55:57;7.88;;;5.50;;
77495;SDS011;66600;48.378;9.948;2023-04-30T09:58:27;5.85;;;4.72;;
77495;SDS011;66600;48.378;9.948;2023-04-30T10:00:53;7.65;;;4.97;;
77495;SDS011;66600;48.378;9.948;2023-04-30T10:03:23;6.13;;;4.53;;
77495;SDS011;66600;48.378;9.948;2023-04-30T10:05:48;7.40;;;4.93;;
77495;SDS011;66600;48.378;9.948;2023-04-30T10:08:32;6.63;;;4.80;;
77495;SDS011;66600;48.378;9.948;2023-04-30T10:11:05;4.70;;;4.20;;
77495;SDS011;66600;48.378;9.948;2023-04-30T10:13:37;7.53;;;5.00;;
77495;SDS011;66600;48.378;9.948;2023-04-30T10:16:10;5.97;;;4.70;;
77495;SDS011;66600;48.378;9.948;2023-04-30T10:18:42;6.65;;;4.47;;
77495;SDS011;66600;48.378;9.948;2023-04-30T10:21:10;5.30;;;4.32;;
77495;SDS011;66600;48.378;9.948;2023-04-30T10:23:38;9.80;;;4.60;;
77495;SDS011;66600;48.378;9.948;2023-04-30T10:26:06;6.20;;;4.50;;
77495;SDS011;66600;48.378;9.948;2023-04-30T10:28:32;7.28;;;4.32;;
77495;SDS011;66600;48.378;9.948;2023-04-30T10:30:58;6.85;;;4.05;;
77495;SDS011;66600;48.378;9.948;2023-04-30T10:35:56;5.22;;;4.10;;
77495;SDS011;66600;48.378;9.948;2023-04-30T10:38:25;4.85;;;3.65;;
77495;SDS011;66600;48.378;9.948;2023-04-30T10:40:54;5.75;;;3.90;;
77495;SDS011;66600;48.378;9.948;2023-04-30T10:43:25;6.70;;;4.50;;
77495;SDS011;66600;48.378;9.948;2023-04-30T10:45:51;7.95;;;4.10;;
77495;SDS011;66600;48.378;9.948;2023-04-30T10:48:17;5.10;;;4.07;;
77495;SDS011;66600;48.378;9.948;2023-04-30T10:50:50;7.90;;;4.35;;
77495;SDS011;66600;48.378;9.948;2023-04-30T10:53:17;6.68;;;4.18;;
77495;SDS011;66600;48.378;9.948;2023-04-30T10:55:47;5.55;;;3.83;;
77495;SDS011;66600;48.378;9.948;2023-04-30T10:58:29;6.50;;;3.75;;
77495;SDS011;66600;48.378;9.948;2023-04-30T11:03:28;5.30;;;4.07;;
77495;SDS011;66600;48.378;9.948;2023-04-30T11:05:55;5.38;;;4.53;;
77495;SDS011;66600;48.378;9.948;2023-04-30T11:08:31;6.13;;;4.72;;
77495;SDS011;66600;48.378;9.948;2023-04-30T11:11:17;7.63;;;4.65;;
77495;SDS011;66600;48.378;9.948;2023-04-30T11:13:45;6.45;;;4.55;;
77495;SDS011;66600;48.378;9.948;2023-04-30T11:16:12;5.63;;;4.22;;
77495;SDS011;66600;48.378;9.948;2023-04-30T11:18:44;6.93;;;4.40;;
77495;SDS011;66600;48.378;9.948;2023-04-30T11:21:10;5.15;;;3.97;;
77495;SDS011;66600;48.378;9.948;2023-04-30T11:23:36;6.63;;;4.45;;
77495;SDS011;66600;48.378;9.948;2023-04-30T11:26:06;5.15;;;3.90;;
77495;SDS011;66600;48.378;9.948;2023-04-30T11:28:31;5.97;;;3.92;;
77495;SDS011;66600;48.378;9.948;2023-04-30T11:30:59;4.82;;;3.72;;
77495;SDS011;66600;48.378;9.948;2023-04-30T11:33:26;6.30;;;3.90;;
77495;SDS011;66600;48.378;9.948;2023-04-30T11:35:53;5.35;;;3.85;;
77495;SDS011;66600;48.378;9.948;2023-04-30T11:41:16;6.30;;;3.80;;
77495;SDS011;66600;48.378;9.948;2023-04-30T11:43:41;6.00;;;3.70;;
77495;SDS011;66600;48.378;9.948;2023-04-30T11:46:07;5.22;;;3.40;;
77495;SDS011;66600;48.378;9.948;2023-04-30T11:48:35;4.37;;;3.17;;
77495;SDS011;66600;48.378;9.948;2023-04-30T11:51:03;4.63;;;3.38;;
77495;SDS011;66600;48.378;9.948;2023-04-30T11:53:51;5.32;;;3.60;;
77495;SDS011;66600;48.378;9.948;2023-04-30T11:56:21;4.50;;;3.50;;
77495;SDS011;66600;48.378;9.948;2023-04-30T11:58:48;4.32;;;3.20;;
77495;SDS011;66600;48.378;9.948;2023-04-30T12:01:14;6.13;;;4.30;;
77495;SDS011;66600;48.378;9.948;2023-04-30T12:03:42;5.55;;;4.40;;
77495;SDS011;66600;48.378;9.948;2023-04-30T12:06:12;4.63;;;3.67;;
77495;SDS011;66600;48.378;9.948;2023-04-30T12:08:46;4.10;;;3.33;;
77495;SDS011;66600;48.378;9.948;2023-04-30T12:11:18;4.82;;;3.40;;
77495;SDS011;66600;48.378;9.948;2023-04-30T12:14:10;4.80;;;3.38;;
77495;SDS011;66600;48.378;9.948;2023-04-30T12:16:45;4.65;;;2.85;;
77495;SDS011;66600;48.378;9.948;2023-04-30T12:19:15;4.88;;;3.45;;
77495;SDS011;66600;48.378;9.948;2023-04-30T12:21:41;5.65;;;3.70;;
77495;SDS011;66600;48.378;9.948;2023-04-30T12:24:16;5.38;;;4.18;;
77495;SDS011;66600;48.378;9.948;2023-04-30T12:26:42;3.75;;;3.25;;
77495;SDS011;66600;48.378;9.948;2023-04-30T12:29:09;6.50;;;4.10;;
77495;SDS011;66600;48.378;9.948;2023-04-30T12:31:35;5.03;;;3.53;;
77495;SDS011;66600;48.378;9.948;2023-04-30T12:34:02;4.28;;;3.15;;
77495;SDS011;66600;48.378;9.948;2023-04-30T12:36:29;6.30;;;3.28;;
77495;SDS011;66600;48.378;9.948;2023-04-30T12:39:06;5.68;;;3.67;;
77495;SDS011;66600;48.378;9.948;2023-04-30T12:41:42;4.95;;;2.90;;
77495;SDS011;66600;48.378;9.948;2023-04-30T12:44:13;4.03;;;2.85;;
77495;SDS011;66600;48.378;9.948;2023-04-30T12:46:50;3.85;;;3.45;;
77495;SDS011;66600;48.378;9.948;2023-04-30T12:49:43;4.30;;;2.97;;
77495;SDS011;66600;48.378;9.948;2023-04-30T12:52:11;4.80;;;3.83;;
77495;SDS011;66600;48.378;9.948;2023-04-30T12:54:38;6.03;;;3.55;;
77495;SDS011;66600;48.378;9.948;2023-04-30T12:57:04;4.50;;;3.45;;
77495;SDS011;66600;48.378;9.948;2023-04-30T12:59:32;4.72;;;3.83;;
77495;SDS011;66600;48.378;9.948;2023-04-30T13:02:09;6.25;;;3.95;;
77495;SDS011;66600;48.378;9.948;2023-04-30T13:04:36;4.32;;;3.83;;
77495;SDS011;66600;48.378;9.948;2023-04-30T13:07:02;4.30;;;3.72;;
77495;SDS011;66600;48.378;9.948;2023-04-30T13:09:28;4.50;;;3.70;;
77495;SDS011;66600;48.378;9.948;2023-04-30T13:11:54;5.75;;;3.95;;
77495;SDS011;66600;48.378;9.948;2023-04-30T13:14:19;5.57;;;3.65;;
77495;SDS011;66600;48.378;9.948;2023-04-30T13:16:45;5.60;;;3.75;;
77495;SDS011;66600;48.378;9.948;2023-04-30T13:19:10;5.88;;;4.43;;
77495;SDS011;66600;48.378;9.948;2023-04-30T13:21:36;5.05;;;3.97;;
77495;SDS011;66600;48.378;9.948;2023-04-30T13:24:01;5.53;;;3.95;;
77495;SDS011;66600;48.378;9.948;2023-04-30T13:26:27;5.20;;;3.97;;
77495;SDS011;66600;48.378;9.948;2023-04-30T13:28:53;4.88;;;3.70;;
77495;SDS011;66600;48.378;9.948;2023-04-30T13:31:18;4.78;;;4.00;;
77495;SDS011;66600;48.378;9.948;2023-04-30T13:33:44;5.15;;;3.70;;
77495;SDS011;66600;48.378;9.948;2023-04-30T13:36:09;5.28;;;4.10;;
77495;SDS011;66600;48.378;9.948;2023-04-30T13:38:35;7.40;;;4.28;;
77495;SDS011;66600;48.378;9.948;2023-04-30T13:41:00;5.53;;;4.13;;
77495;SDS011;66600;48.378;9.948;2023-04-30T13:43:25;5.55;;;3.40;;
77495;SDS011;66600;48.378;9.948;2023-04-30T13:45:51;4.78;;;3.55;;
77495;SDS011;66600;48.378;9.948;2023-04-30T13:48:16;4.80;;;3.47;;
77495;SDS011;66600;48.378;9.948;2023-04-30T13:50:42;4.65;;;3.80;;
77495;SDS011;66600;48.378;9.948;2023-04-30T13:53:07;4.72;;;3.50;;
77495;SDS011;66600;48.378;9.948;2023-04-30T13:55:32;4.32;;;3.65;;
77495;SDS011;66600;48.378;9.948;2023-04-30T13:57:58;6.32;;;3.70;;
77495;SDS011;66600;48.378;9.948;2023-04-30T14:00:23;4.90;;;3.90;;
77495;SDS011;66600;48.378;9.948;2023-04-30T14:02:50;4.30;;;3.33;;
77495;SDS011;66600;48.378;9.948;2023-04-30T14:05:16;5.30;;;3.50;;
77495;SDS011;66600;48.378;9.948;2023-04-30T14:07:42;5.43;;;3.30;;
77495;SDS011;66600;48.378;9.948;2023-04-30T14:10:07;4.38;;;3.47;;
77495;SDS011;66600;48.378;9.948;2023-04-30T14:12:32;4.72;;;3.05;;
77495;SDS011;66600;48.378;9.948;2023-04-30T14:14:58;9.13;;;7.03;;
77495;SDS011;66600;48.378;9.948;2023-04-30T14:17:24;5.50;;;4.00;;
77495;SDS011;66600;48.378;9.948;2023-04-30T14:19:53;4.22;;;3.58;;
77495;SDS011;66600;48.378;9.948;2023-04-30T14:22:18;5.05;;;3.00;;
77495;SDS011;66600;48.378;9.948;2023-04-30T14:24:44;3.80;;;3.10;;
77495;SDS011;66600;48.378;9.948;2023-04-30T14:27:09;3.90;;;3.25;;
77495;SDS011;66600;48.378;9.948;2023-04-30T14:29:34;4.50;;;3.20;;
77495;SDS011;66600;48.378;9.948;2023-04-30T14:32:00;3.80;;;3.08;;
77495;SDS011;66600;48.378;9.948;2023-04-30T14:34:25;6.55;;;3.92;;
77495;SDS011;66600;48.378;9.948;2023-04-30T14:36:51;5.78;;;4.20;;
77495;SDS011;66600;48.378;9.948;2023-04-30T14:39:17;5.88;;;3.53;;
77495;SDS011;66600;48.378;9.948;2023-04-30T14:41:42;5.03;;;3.30;;
77495;SDS011;66600;48.378;9.948;2023-04-30T14:44:08;4.90;;;3.42;;
77495;SDS011;66600;48.378;9.948;2023-04-30T14:46:34;6.13;;;3.53;;
77495;SDS011;66600;48.378;9.948;2023-04-30T14:48:59;4.30;;;3.17;;
77495;SDS011;66600;48.378;9.948;2023-04-30T14:51:25;5.25;;;3.50;;
77495;SDS011;66600;48.378;9.948;2023-04-30T14:53:50;4.43;;;3.15;;
77495;SDS011;66600;48.378;9.948;2023-04-30T14:56:15;3.90;;;2.92;;